sensor_id;sensor_type;location;lat;lon;timestamp;pressure;altitude;pressure_sealevel;temperature;humidity
67397;BME280;57728;50.448;18.824;2023-03-11T00:00:56;95234.81;;;9.92;64.84
67397;BME280;57728;50.448;18.824;2023-03-11T00:03:01;95255.88;;;10.01;65.27
67397;BME280;57728;50.448;18.824;2023-03-11T00:05:07;95231.75;;;9.80;65.30
67397;BME280;57728;50.448;18.824;2023-03-11T00:07:10;95205.97;;;9.58;65.48
67397;BME280;57728;50.448;18.824;2023-03-11T00:09:12;95215.06;;;9.68;65.42
67397;BME280;57728;50.448;18.824;2023-03-11T00:11:14;95246.25;;;9.89;65.45
67397;BME280;57728;50.448;18.824;2023-03-11T00:13:16;95237.63;;;9.87;65.51
67397;BME280;57728;50.448;18.824;2023-03-11T00:15:18;95215.00;;;9.73;65.58
67397;BME280;57728;50.448;18.824;2023-03-11T00:17:20;95242.53;;;9.85;65.38
67397;BME280;57728;50.448;18.824;2023-03-11T00:19:22;95136.78;;;9.18;65.43
67397;BME280;57728;50.448;18.824;2023-03-11T00:21:24;95185.72;;;9.51;65.48
67397;BME280;57728;50.448;18.824;2023-03-11T00:23:25;95250.97;;;9.84;65.46
67397;BME280;57728;50.448;18.824;2023-03-11T00:25:30;95146.09;;;9.31;65.21
67397;BME280;57728;50.448;18.824;2023-03-11T00:27:33;95214.19;;;9.72;65.22
67397;BME280;57728;50.448;18.824;2023-03-11T00:29:35;95235.50;;;9.84;65.04
67397;BME280;57728;50.448;18.824;2023-03-11T00:31:36;95227.34;;;9.84;64.99
67397;BME280;57728;50.448;18.824;2023-03-11T00:33:40;95183.75;;;9.56;64.99
67397;BME280;57728;50.448;18.824;2023-03-11T00:35:42;95204.72;;;9.70;65.09
67397;BME280;57728;50.448;18.824;2023-03-11T00:37:46;95120.50;;;9.18;64.82
67397;BME280;57728;50.448;18.824;2023-03-11T00:39:49;95190.25;;;9.74;64.63
67397;BME280;57728;50.448;18.824;2023-03-11T00:41:50;95187.25;;;9.76;64.51
67397;BME280;57728;50.448;18.824;2023-03-11T00:43:51;95084.97;;;9.14;64.31
67397;BME280;57728;50.448;18.824;2023-03-11T00:45:53;95191.44;;;9.87;64.31
67397;BME280;57728;50.448;18.824;2023-03-11T00:47:55;95212.94;;;10.03;64.14
67397;BME280;57728;50.448;18.824;2023-03-11T00:49:57;95189.22;;;9.89;64.30
67397;BME280;57728;50.448;18.824;2023-03-11T00:52:00;95178.44;;;9.84;64.15
67397;BME280;57728;50.448;18.824;2023-03-11T00:54:01;95212.03;;;10.07;64.22
67397;BME280;57728;50.448;18.824;2023-03-11T00:56:08;95219.09;;;10.08;64.15
67397;BME280;57728;50.448;18.824;2023-03-11T00:58:14;95216.88;;;10.10;64.13
67397;BME280;57728;50.448;18.824;2023-03-11T01:00:29;95214.66;;;10.12;63.86
67397;BME280;57728;50.448;18.824;2023-03-11T01:02:31;95145.13;;;9.59;63.83
67397;BME280;57728;50.448;18.824;2023-03-11T01:04:35;95217.88;;;10.14;63.74
67397;BME280;57728;50.448;18.824;2023-03-11T01:06:37;95137.69;;;9.65;63.53
67397;BME280;57728;50.448;18.824;2023-03-11T01:08:39;95213.53;;;10.13;63.66
67397;BME280;57728;50.448;18.824;2023-03-11T01:10:41;95186.72;;;9.93;63.47
67397;BME280;57728;50.448;18.824;2023-03-11T01:12:43;95195.06;;;9.96;63.42
67397;BME280;57728;50.448;18.824;2023-03-11T01:14:45;95191.84;;;9.94;63.54
67397;BME280;57728;50.448;18.824;2023-03-11T01:16:47;95117.47;;;9.38;63.29
67397;BME280;57728;50.448;18.824;2023-03-11T01:18:50;95182.03;;;9.79;63.39
67397;BME280;57728;50.448;18.824;2023-03-11T01:20:52;95175.53;;;9.61;63.46
67397;BME280;57728;50.448;18.824;2023-03-11T01:22:54;95167.94;;;9.58;63.60
67397;BME280;57728;50.448;18.824;2023-03-11T01:24:56;95181.00;;;9.75;63.83
67397;BME280;57728;50.448;18.824;2023-03-11T01:26:57;95216.59;;;9.93;63.87
67397;BME280;57728;50.448;18.824;2023-03-11T01:29:00;95191.84;;;9.75;63.89
67397;BME280;57728;50.448;18.824;2023-03-11T01:31:01;95160.69;;;9.54;63.87
67397;BME280;57728;50.448;18.824;2023-03-11T01:33:04;95180.97;;;9.61;63.83
67397;BME280;57728;50.448;18.824;2023-03-11T01:35:11;95103.25;;;9.08;63.87
67397;BME280;57728;50.448;18.824;2023-03-11T01:37:14;95220.34;;;9.78;64.08
67397;BME280;57728;50.448;18.824;2023-03-11T01:39:15;95204.06;;;9.59;64.22
67397;BME280;57728;50.448;18.824;2023-03-11T01:41:18;95200.22;;;9.60;64.19
67397;BME280;57728;50.448;18.824;2023-03-11T01:47:56;95228.50;;;9.78;64.33
67397;BME280;57728;50.448;18.824;2023-03-11T01:49:57;95165.53;;;9.38;64.21
67397;BME280;57728;50.448;18.824;2023-03-11T01:52:05;95204.81;;;9.64;64.18
67397;BME280;57728;50.448;18.824;2023-03-11T01:54:16;95177.13;;;9.43;64.20
67397;BME280;57728;50.448;18.824;2023-03-11T01:56:22;95170.38;;;9.41;64.05
67397;BME280;57728;50.448;18.824;2023-03-11T01:58:29;95177.72;;;9.40;63.85
67397;BME280;57728;50.448;18.824;2023-03-11T02:00:36;95197.03;;;9.58;63.67
67397;BME280;57728;50.448;18.824;2023-03-11T02:02:50;95185.88;;;9.40;63.41
67397;BME280;57728;50.448;18.824;2023-03-11T02:04:54;95209.06;;;9.52;63.34
67397;BME280;57728;50.448;18.824;2023-03-11T02:07:00;95186.72;;;9.36;63.30
67397;BME280;57728;50.448;18.824;2023-03-11T02:09:03;95165.50;;;9.19;63.18
67397;BME280;57728;50.448;18.824;2023-03-11T02:11:07;95185.78;;;9.26;63.04
67397;BME280;57728;50.448;18.824;2023-03-11T02:13:14;95238.66;;;9.53;62.92
67397;BME280;57728;50.448;18.824;2023-03-11T02:15:16;95126.38;;;8.82;62.96
67397;BME280;57728;50.448;18.824;2023-03-11T02:17:18;95230.09;;;9.41;63.12
67397;BME280;57728;50.448;18.824;2023-03-11T02:19:33;95189.63;;;9.01;63.09
67397;BME280;57728;50.448;18.824;2023-03-11T02:21:38;95213.75;;;9.03;63.54
67397;BME280;57728;50.448;18.824;2023-03-11T02:24:04;95209.50;;;8.97;63.73
67397;BME280;57728;50.448;18.824;2023-03-11T02:26:24;95065.59;;;7.91;64.38
67397;BME280;57728;50.448;18.824;2023-03-11T02:28:35;95241.03;;;8.92;64.80
67397;BME280;57728;50.448;18.824;2023-03-11T02:30:41;95240.03;;;8.83;65.43
67397;BME280;57728;50.448;18.824;2023-03-11T02:32:45;95096.81;;;7.83;65.81
67397;BME280;57728;50.448;18.824;2023-03-11T02:34:49;95230.66;;;8.70;66.20
67397;BME280;57728;50.448;18.824;2023-03-11T02:36:51;95193.38;;;8.27;66.64
67397;BME280;57728;50.448;18.824;2023-03-11T02:38:53;95162.78;;;7.98;66.62
67397;BME280;57728;50.448;18.824;2023-03-11T02:40:58;95183.19;;;8.14;66.74
67397;BME280;57728;50.448;18.824;2023-03-11T02:43:07;95257.47;;;8.48;66.70
67397;BME280;57728;50.448;18.824;2023-03-11T02:45:16;95201.34;;;8.19;66.95
67397;BME280;57728;50.448;18.824;2023-03-11T02:47:20;95250.16;;;8.43;67.09
67397;BME280;57728;50.448;18.824;2023-03-11T02:49:23;95228.84;;;8.31;67.25
67397;BME280;57728;50.448;18.824;2023-03-11T02:51:24;95195.97;;;8.08;67.30
67397;BME280;57728;50.448;18.824;2023-03-11T02:53:30;95180.13;;;7.97;67.15
67397;BME280;57728;50.448;18.824;2023-03-11T02:55:36;95196.34;;;8.02;67.78
67397;BME280;57728;50.448;18.824;2023-03-11T02:57:38;95260.31;;;8.27;68.20
67397;BME280;57728;50.448;18.824;2023-03-11T02:59:40;95269.09;;;8.14;68.72
67397;BME280;57728;50.448;18.824;2023-03-11T03:01:43;95234.88;;;7.88;69.19
67397;BME280;57728;50.448;18.824;2023-03-11T03:03:46;95224.16;;;7.73;69.56
67397;BME280;57728;50.448;18.824;2023-03-11T03:05:47;95198.69;;;7.39;69.79
67397;BME280;57728;50.448;18.824;2023-03-11T03:07:50;95243.75;;;7.60;70.20
67397;BME280;57728;50.448;18.824;2023-03-11T03:09:52;95193.88;;;7.26;70.38
67397;BME280;57728;50.448;18.824;2023-03-11T03:11:54;95231.94;;;7.40;70.59
67397;BME280;57728;50.448;18.824;2023-03-11T03:13:56;95182.88;;;7.07;70.78
67397;BME280;57728;50.448;18.824;2023-03-11T03:15:59;95210.97;;;7.16;71.11
67397;BME280;57728;50.448;18.824;2023-03-11T03:18:00;95232.03;;;7.25;71.18
67397;BME280;57728;50.448;18.824;2023-03-11T03:20:03;95229.84;;;7.27;71.39
67397;BME280;57728;50.448;18.824;2023-03-11T03:22:09;95206.69;;;7.05;71.58
67397;BME280;57728;50.448;18.824;2023-03-11T03:24:10;95256.03;;;7.36;71.50
67397;BME280;57728;50.448;18.824;2023-03-11T03:26:13;95249.84;;;7.36;71.41
67397;BME280;57728;50.448;18.824;2023-03-11T03:28:17;95185.34;;;6.98;71.31
67397;BME280;57728;50.448;18.824;2023-03-11T03:30:20;95205.31;;;7.13;71.03
67397;BME280;57728;50.448;18.824;2023-03-11T03:32:22;95226.13;;;7.17;70.28
67397;BME280;57728;50.448;18.824;2023-03-11T03:34:24;95201.84;;;7.02;69.55
67397;BME280;57728;50.448;18.824;2023-03-11T03:36:26;95248.53;;;7.28;69.07
67397;BME280;57728;50.448;18.824;2023-03-11T03:38:32;95223.69;;;7.16;68.86
67397;BME280;57728;50.448;18.824;2023-03-11T03:40:34;95201.56;;;6.98;68.72
67397;BME280;57728;50.448;18.824;2023-03-11T03:42:38;95201.56;;;6.98;68.54
67397;BME280;57728;50.448;18.824;2023-03-11T03:44:43;95264.16;;;7.36;68.40
67397;BME280;57728;50.448;18.824;2023-03-11T03:46:45;95176.22;;;6.89;68.35
67397;BME280;57728;50.448;18.824;2023-03-11T03:48:47;95240.66;;;7.27;68.14
67397;BME280;57728;50.448;18.824;2023-03-11T03:50:50;95197.78;;;6.99;68.25
67397;BME280;57728;50.448;18.824;2023-03-11T03:52:51;95254.44;;;7.35;68.39
67397;BME280;57728;50.448;18.824;2023-03-11T03:54:55;95247.19;;;7.20;68.33
67397;BME280;57728;50.448;18.824;2023-03-11T03:56:57;95255.31;;;7.20;68.72
67397;BME280;57728;50.448;18.824;2023-03-11T03:58:59;95236.47;;;7.00;68.86
67397;BME280;57728;50.448;18.824;2023-03-11T04:01:07;95265.69;;;7.03;69.15
67397;BME280;57728;50.448;18.824;2023-03-11T04:03:11;95258.16;;;6.74;69.61
67397;BME280;57728;50.448;18.824;2023-03-11T04:05:18;95237.41;;;6.49;70.07
67397;BME280;57728;50.448;18.824;2023-03-11T04:07:20;95233.94;;;6.38;70.80
67397;BME280;57728;50.448;18.824;2023-03-11T04:09:22;95273.34;;;6.60;70.79
67397;BME280;57728;50.448;18.824;2023-03-11T04:11:24;95225.81;;;6.33;71.15
67397;BME280;57728;50.448;18.824;2023-03-11T04:13:26;95242.59;;;6.35;71.50
67397;BME280;57728;50.448;18.824;2023-03-11T04:15:28;95201.03;;;6.05;71.69
67397;BME280;57728;50.448;18.824;2023-03-11T04:17:30;95233.41;;;6.26;71.48
67397;BME280;57728;50.448;18.824;2023-03-11T04:19:31;95268.78;;;6.34;71.80
67397;BME280;57728;50.448;18.824;2023-03-11T04:21:34;95218.00;;;5.85;71.90
67397;BME280;57728;50.448;18.824;2023-03-11T04:23:36;95255.81;;;6.16;71.97
67397;BME280;57728;50.448;18.824;2023-03-11T04:25:38;95248.53;;;6.06;71.69
67397;BME280;57728;50.448;18.824;2023-03-11T04:27:40;95191.81;;;5.44;72.04
67397;BME280;57728;50.448;18.824;2023-03-11T04:29:46;95192.31;;;5.36;72.50
67397;BME280;57728;50.448;18.824;2023-03-11T04:31:48;95222.50;;;5.28;73.16
67397;BME280;57728;50.448;18.824;2023-03-11T04:33:50;95203.03;;;5.10;73.83
67397;BME280;57728;50.448;18.824;2023-03-11T04:35:52;95291.91;;;5.53;74.40
67397;BME280;57728;50.448;18.824;2023-03-11T04:37:53;95298.66;;;5.50;74.32
67397;BME280;57728;50.448;18.824;2023-03-11T04:39:56;95271.41;;;5.52;74.66
67397;BME280;57728;50.448;18.824;2023-03-11T04:41:58;95274.91;;;5.53;74.93
67397;BME280;57728;50.448;18.824;2023-03-11T04:44:01;95276.53;;;5.54;74.90
67397;BME280;57728;50.448;18.824;2023-03-11T04:46:03;95262.69;;;5.29;74.64
67397;BME280;57728;50.448;18.824;2023-03-11T04:48:05;95255.94;;;5.27;74.99
67397;BME280;57728;50.448;18.824;2023-03-11T04:50:07;95261.09;;;5.33;75.07
67397;BME280;57728;50.448;18.824;2023-03-11T04:52:10;95254.84;;;5.23;75.11
67397;BME280;57728;50.448;18.824;2023-03-11T04:54:12;95295.38;;;5.38;75.51
67397;BME280;57728;50.448;18.824;2023-03-11T04:56:13;95279.19;;;5.33;75.66
67397;BME280;57728;50.448;18.824;2023-03-11T04:58:15;95288.09;;;5.44;75.95
67397;BME280;57728;50.448;18.824;2023-03-11T05:00:19;95290.53;;;5.40;75.32
67397;BME280;57728;50.448;18.824;2023-03-11T05:02:31;95290.50;;;5.35;75.97
67397;BME280;57728;50.448;18.824;2023-03-11T05:04:36;95301.28;;;5.35;75.88
67397;BME280;57728;50.448;18.824;2023-03-11T05:06:37;95241.53;;;4.90;75.89
67397;BME280;57728;50.448;18.824;2023-03-11T05:08:39;95296.38;;;5.22;75.98
67397;BME280;57728;50.448;18.824;2023-03-11T05:10:42;95298.44;;;4.94;76.19
67397;BME280;57728;50.448;18.824;2023-03-11T05:12:44;95293.22;;;4.82;76.24
67397;BME280;57728;50.448;18.824;2023-03-11T05:14:46;95279.94;;;4.65;76.01
67397;BME280;57728;50.448;18.824;2023-03-11T05:16:48;95331.22;;;4.75;75.11
67397;BME280;57728;50.448;18.824;2023-03-11T05:18:49;95315.63;;;4.45;75.11
67397;BME280;57728;50.448;18.824;2023-03-11T05:20:51;95349.88;;;4.50;75.22
67397;BME280;57728;50.448;18.824;2023-03-11T05:22:57;95347.09;;;4.34;74.90
67397;BME280;57728;50.448;18.824;2023-03-11T05:24:59;95379.72;;;4.10;74.60
67397;BME280;57728;50.448;18.824;2023-03-11T05:27:02;95355.63;;;3.99;74.77
67397;BME280;57728;50.448;18.824;2023-03-11T05:29:05;95289.69;;;3.41;74.94
67397;BME280;57728;50.448;18.824;2023-03-11T05:31:08;95315.63;;;3.53;75.06
67397;BME280;57728;50.448;18.824;2023-03-11T05:33:11;95355.91;;;3.70;75.29
67397;BME280;57728;50.448;18.824;2023-03-11T05:35:17;95363.66;;;3.66;75.66
67397;BME280;57728;50.448;18.824;2023-03-11T05:37:22;95362.56;;;3.62;75.72
67397;BME280;57728;50.448;18.824;2023-03-11T05:39:25;95375.44;;;3.60;75.90
67397;BME280;57728;50.448;18.824;2023-03-11T05:41:27;95377.00;;;3.56;75.48
67397;BME280;57728;50.448;18.824;2023-03-11T05:43:28;95372.06;;;3.48;75.43
67397;BME280;57728;50.448;18.824;2023-03-11T05:45:30;95329.41;;;3.12;75.55
67397;BME280;57728;50.448;18.824;2023-03-11T05:47:34;95383.75;;;3.36;75.64
67397;BME280;57728;50.448;18.824;2023-03-11T05:49:35;95358.47;;;3.15;75.90
67397;BME280;57728;50.448;18.824;2023-03-11T05:51:37;95367.31;;;3.10;76.04
67397;BME280;57728;50.448;18.824;2023-03-11T05:53:47;95393.50;;;3.20;76.14
67397;BME280;57728;50.448;18.824;2023-03-11T05:55:56;95331.91;;;2.74;76.24
67397;BME280;57728;50.448;18.824;2023-03-11T05:58:00;95400.38;;;3.11;76.06
67397;BME280;57728;50.448;18.824;2023-03-11T06:00:04;95404.63;;;3.07;75.88
67397;BME280;57728;50.448;18.824;2023-03-11T06:02:14;95394.06;;;3.00;75.96
67397;BME280;57728;50.448;18.824;2023-03-11T06:04:17;95277.69;;;2.21;75.77
67397;BME280;57728;50.448;18.824;2023-03-11T06:06:20;95306.56;;;2.31;75.74
67397;BME280;57728;50.448;18.824;2023-03-11T06:08:21;95404.97;;;2.93;75.98
67397;BME280;57728;50.448;18.824;2023-03-11T06:10:23;95406.50;;;2.89;76.05
67397;BME280;57728;50.448;18.824;2023-03-11T06:12:26;95318.28;;;2.25;76.20
67397;BME280;57728;50.448;18.824;2023-03-11T06:14:46;95331.53;;;2.32;76.38
67397;BME280;57728;50.448;18.824;2023-03-11T06:16:47;95425.19;;;2.79;76.34
67397;BME280;57728;50.448;18.824;2023-03-11T06:18:50;95399.88;;;2.75;76.41
67397;BME280;57728;50.448;18.824;2023-03-11T06:20:53;95388.56;;;2.56;76.61
67397;BME280;57728;50.448;18.824;2023-03-11T06:22:58;95404.34;;;2.69;76.49
67397;BME280;57728;50.448;18.824;2023-03-11T06:25:00;95424.94;;;2.81;76.47
67397;BME280;57728;50.448;18.824;2023-03-11T06:27:04;95372.47;;;2.39;76.42
67397;BME280;57728;50.448;18.824;2023-03-11T06:29:12;95430.06;;;2.82;76.30
67397;BME280;57728;50.448;18.824;2023-03-11T06:31:22;95447.06;;;2.88;76.75
67397;BME280;57728;50.448;18.824;2023-03-11T06:33:32;95345.69;;;2.27;76.52
67397;BME280;57728;50.448;18.824;2023-03-11T06:35:33;95442.34;;;2.95;76.55
67397;BME280;57728;50.448;18.824;2023-03-11T06:37:36;95446.91;;;2.95;76.08
67397;BME280;57728;50.448;18.824;2023-03-11T06:39:37;95452.28;;;2.95;76.11
67397;BME280;57728;50.448;18.824;2023-03-11T06:41:40;95383.59;;;2.48;76.13
67397;BME280;57728;50.448;18.824;2023-03-11T06:43:43;95428.63;;;2.74;76.09
67397;BME280;57728;50.448;18.824;2023-03-11T06:45:45;95461.66;;;2.92;76.26
67397;BME280;57728;50.448;18.824;2023-03-11T06:47:46;95462.28;;;2.99;76.56
67397;BME280;57728;50.448;18.824;2023-03-11T06:49:55;95462.94;;;3.06;76.55
67397;BME280;57728;50.448;18.824;2023-03-11T06:51:56;95391.66;;;2.65;76.27
67397;BME280;57728;50.448;18.824;2023-03-11T06:53:58;95461.78;;;3.19;76.22
67397;BME280;57728;50.448;18.824;2023-03-11T06:56:12;95467.41;;;3.18;75.70
67397;BME280;57728;50.448;18.824;2023-03-11T06:58:19;95486.72;;;3.15;75.45
67397;BME280;57728;50.448;18.824;2023-03-11T07:00:20;95458.84;;;3.04;75.43
67397;BME280;57728;50.448;18.824;2023-03-11T07:02:28;95423.69;;;2.71;75.59
67397;BME280;57728;50.448;18.824;2023-03-11T07:04:30;95455.38;;;2.86;75.50
67397;BME280;57728;50.448;18.824;2023-03-11T07:06:32;95486.56;;;3.04;75.60
67397;BME280;57728;50.448;18.824;2023-03-11T07:08:40;95492.44;;;3.01;75.90
67397;BME280;57728;50.448;18.824;2023-03-11T07:10:42;95465.88;;;2.88;75.96
67397;BME280;57728;50.448;18.824;2023-03-11T07:12:43;95437.06;;;2.66;75.88
67397;BME280;57728;50.448;18.824;2023-03-11T07:14:46;95423.41;;;2.51;75.76
67397;BME280;57728;50.448;18.824;2023-03-11T07:16:47;95503.19;;;3.01;76.10
67397;BME280;57728;50.448;18.824;2023-03-11T07:19:00;95434.78;;;2.58;76.03
67397;BME280;57728;50.448;18.824;2023-03-11T07:21:08;95496.69;;;2.97;76.41
67397;BME280;57728;50.448;18.824;2023-03-11T07:23:09;95536.00;;;3.03;76.56
67397;BME280;57728;50.448;18.824;2023-03-11T07:25:13;95493.97;;;2.97;76.27
67397;BME280;57728;50.448;18.824;2023-03-11T07:27:16;95499.41;;;3.02;76.36
67397;BME280;57728;50.448;18.824;2023-03-11T07:29:17;95461.75;;;2.80;76.50
67397;BME280;57728;50.448;18.824;2023-03-11T07:31:23;95516.19;;;3.09;76.20
67397;BME280;57728;50.448;18.824;2023-03-11T07:33:27;95498.03;;;3.00;76.43
67397;BME280;57728;50.448;18.824;2023-03-11T07:35:30;95501.31;;;3.02;76.12
67397;BME280;57728;50.448;18.824;2023-03-11T07:37:32;95426.19;;;2.56;76.38
67397;BME280;57728;50.448;18.824;2023-03-11T07:39:34;95508.06;;;3.04;76.31
67397;BME280;57728;50.448;18.824;2023-03-11T07:41:35;95523.94;;;3.23;76.16
67397;BME280;57728;50.448;18.824;2023-03-11T07:43:38;95376.69;;;2.18;75.71
67397;BME280;57728;50.448;18.824;2023-03-11T07:45:41;95487.47;;;2.93;75.38
67397;BME280;57728;50.448;18.824;2023-03-11T07:47:43;95523.22;;;3.10;74.38
67397;BME280;57728;50.448;18.824;2023-03-11T07:49:44;95499.59;;;2.96;73.48
67397;BME280;57728;50.448;18.824;2023-03-11T07:51:46;95493.25;;;2.85;72.13
67397;BME280;57728;50.448;18.824;2023-03-11T07:53:48;95441.69;;;2.54;71.83
67397;BME280;57728;50.448;18.824;2023-03-11T07:55:55;95535.69;;;3.17;72.07
67397;BME280;57728;50.448;18.824;2023-03-11T07:58:00;95495.59;;;2.98;72.02
67397;BME280;57728;50.448;18.824;2023-03-11T08:00:02;95530.88;;;3.19;71.72
67397;BME280;57728;50.448;18.824;2023-03-11T08:02:12;95420.63;;;2.46;70.66
67397;BME280;57728;50.448;18.824;2023-03-11T08:04:14;95552.88;;;3.16;70.91
67397;BME280;57728;50.448;18.824;2023-03-11T08:06:20;95484.00;;;2.47;71.25
67397;BME280;57728;50.448;18.824;2023-03-11T08:08:23;95548.28;;;2.99;71.79
67397;BME280;57728;50.448;18.824;2023-03-11T08:10:26;95534.69;;;2.72;71.95
67397;BME280;57728;50.448;18.824;2023-03-11T08:12:27;95575.66;;;2.96;72.52
67397;BME280;57728;50.448;18.824;2023-03-11T08:14:28;95570.19;;;2.91;71.91
67397;BME280;57728;50.448;18.824;2023-03-11T08:16:30;95547.88;;;2.73;71.18
67397;BME280;57728;50.448;18.824;2023-03-11T08:18:33;95567.91;;;2.83;70.94
67397;BME280;57728;50.448;18.824;2023-03-11T08:20:36;95532.53;;;2.57;71.35
67397;BME280;57728;50.448;18.824;2023-03-11T08:22:42;95448.22;;;1.95;71.02
67397;BME280;57728;50.448;18.824;2023-03-11T08:24:44;95546.44;;;2.54;71.49
67397;BME280;57728;50.448;18.824;2023-03-11T08:26:45;95551.50;;;2.50;71.85
67397;BME280;57728;50.448;18.824;2023-03-11T08:28:48;95575.88;;;2.49;72.33
67397;BME280;57728;50.448;18.824;2023-03-11T08:30:50;95553.06;;;2.34;72.47
67397;BME280;57728;50.448;18.824;2023-03-11T08:32:51;95599.69;;;2.57;72.53
67397;BME280;57728;50.448;18.824;2023-03-11T08:34:53;95597.03;;;2.45;72.65
67397;BME280;57728;50.448;18.824;2023-03-11T08:36:54;95599.50;;;2.47;72.59
67397;BME280;57728;50.448;18.824;2023-03-11T08:38:56;95405.00;;;1.27;72.60
67397;BME280;57728;50.448;18.824;2023-03-11T08:40:59;95530.06;;;2.10;72.65
67397;BME280;57728;50.448;18.824;2023-03-11T08:43:01;95557.88;;;2.20;72.78
67397;BME280;57728;50.448;18.824;2023-03-11T08:45:03;95576.31;;;2.29;73.02
67397;BME280;57728;50.448;18.824;2023-03-11T08:47:05;95597.84;;;2.46;73.07
67397;BME280;57728;50.448;18.824;2023-03-11T08:49:07;95545.25;;;1.92;73.45
67397;BME280;57728;50.448;18.824;2023-03-11T08:51:12;95633.78;;;2.16;73.56
67397;BME280;57728;50.448;18.824;2023-03-11T08:53:14;95623.72;;;2.23;74.22
67397;BME280;57728;50.448;18.824;2023-03-11T08:55:17;95524.31;;;1.65;74.22
67397;BME280;57728;50.448;18.824;2023-03-11T08:57:24;95618.25;;;2.18;74.60
67397;BME280;57728;50.448;18.824;2023-03-11T08:59:27;95604.38;;;2.09;74.87
67397;BME280;57728;50.448;18.824;2023-03-11T09:01:29;95618.19;;;2.01;75.23
67397;BME280;57728;50.448;18.824;2023-03-11T09:03:32;95588.91;;;1.76;75.28
67397;BME280;57728;50.448;18.824;2023-03-11T09:05:36;95601.84;;;1.91;75.61
67397;BME280;57728;50.448;18.824;2023-03-11T09:07:37;95640.09;;;2.10;75.53
67397;BME280;57728;50.448;18.824;2023-03-11T09:09:39;95513.16;;;1.33;75.50
67397;BME280;57728;50.448;18.824;2023-03-11T09:11:41;95647.53;;;2.08;75.49
67397;BME280;57728;50.448;18.824;2023-03-11T09:13:43;95607.34;;;1.84;75.83
67397;BME280;57728;50.448;18.824;2023-03-11T09:15:49;95652.44;;;2.11;75.47
67397;BME280;57728;50.448;18.824;2023-03-11T09:17:52;95663.41;;;2.09;75.66
67397;BME280;57728;50.448;18.824;2023-03-11T09:19:54;95651.06;;;2.08;75.84
67397;BME280;57728;50.448;18.824;2023-03-11T09:21:59;95665.16;;;2.03;75.65
67397;BME280;57728;50.448;18.824;2023-03-11T09:24:04;95573.88;;;1.51;76.00
67397;BME280;57728;50.448;18.824;2023-03-11T09:26:07;95655.16;;;1.99;76.07
67397;BME280;57728;50.448;18.824;2023-03-11T09:28:08;95674.06;;;2.04;76.26
67397;BME280;57728;50.448;18.824;2023-03-11T09:30:10;95678.00;;;2.01;76.22
67397;BME280;57728;50.448;18.824;2023-03-11T09:32:13;95672.66;;;2.01;76.30
67397;BME280;57728;50.448;18.824;2023-03-11T09:34:15;95675.91;;;2.03;76.31
67397;BME280;57728;50.448;18.824;2023-03-11T09:36:19;95663.66;;;1.96;76.42
67397;BME280;57728;50.448;18.824;2023-03-11T09:38:21;95670.06;;;1.95;76.18
67397;BME280;57728;50.448;18.824;2023-03-11T09:40:25;95688.16;;;2.11;76.23
67397;BME280;57728;50.448;18.824;2023-03-11T09:42:44;95678.59;;;2.03;76.08
67397;BME280;57728;50.448;18.824;2023-03-11T09:45:18;95691.09;;;2.10;76.29
67397;BME280;57728;50.448;18.824;2023-03-11T09:52:14;95709.28;;;2.08;76.17
67397;BME280;57728;50.448;18.824;2023-03-11T09:54:19;95665.53;;;1.83;75.88
67397;BME280;57728;50.448;18.824;2023-03-11T09:56:22;95699.97;;;1.98;76.05
67397;BME280;57728;50.448;18.824;2023-03-11T10:00:43;95723.38;;;2.15;75.91
67397;BME280;57728;50.448;18.824;2023-03-11T10:02:48;95707.44;;;2.08;76.00
67397;BME280;57728;50.448;18.824;2023-03-11T10:04:57;95711.84;;;2.14;75.71
67397;BME280;57728;50.448;18.824;2023-03-11T10:07:11;95730.63;;;2.14;75.69
67397;BME280;57728;50.448;18.824;2023-03-11T10:19:46;95762.25;;;2.24;75.52
67397;BME280;57728;50.448;18.824;2023-03-11T10:26:51;95758.75;;;2.12;75.51
67397;BME280;57728;50.448;18.824;2023-03-11T10:31:47;95784.31;;;2.14;75.54
67397;BME280;57728;50.448;18.824;2023-03-11T10:34:02;95795.16;;;2.08;75.79
67397;BME280;57728;50.448;18.824;2023-03-11T10:36:26;95787.00;;;2.02;75.67
67397;BME280;57728;50.448;18.824;2023-03-11T10:38:43;95719.84;;;1.55;75.61
67397;BME280;57728;50.448;18.824;2023-03-11T10:40:55;95777.88;;;1.80;75.76
67397;BME280;57728;50.448;18.824;2023-03-11T10:43:05;95701.69;;;1.15;75.82
67397;BME280;57728;50.448;18.824;2023-03-11T10:45:14;95829.44;;;1.94;75.74
67397;BME280;57728;50.448;18.824;2023-03-11T10:47:24;95684.78;;;1.14;75.65
67397;BME280;57728;50.448;18.824;2023-03-11T10:49:26;95844.03;;;1.98;75.34
67397;BME280;57728;50.448;18.824;2023-03-11T10:51:33;95850.22;;;1.98;75.52
67397;BME280;57728;50.448;18.824;2023-03-11T10:53:49;95878.69;;;1.99;75.46
67397;BME280;57728;50.448;18.824;2023-03-11T10:55:56;95840.69;;;2.02;75.23
67397;BME280;57728;50.448;18.824;2023-03-11T10:58:26;95782.94;;;1.58;75.06
67397;BME280;57728;50.448;18.824;2023-03-11T11:00:30;95784.66;;;1.52;74.98
67397;BME280;57728;50.448;18.824;2023-03-11T11:02:37;95876.16;;;2.04;75.00
67397;BME280;57728;50.448;18.824;2023-03-11T11:04:41;95861.16;;;1.85;74.46
67397;BME280;57728;50.448;18.824;2023-03-11T11:06:43;95824.44;;;1.55;74.62
67397;BME280;57728;50.448;18.824;2023-03-11T11:08:45;95857.63;;;1.73;74.26
67397;BME280;57728;50.448;18.824;2023-03-11T11:10:50;95911.81;;;1.93;74.63
67397;BME280;57728;50.448;18.824;2023-03-11T11:13:01;95877.00;;;1.75;75.02
67397;BME280;57728;50.448;18.824;2023-03-11T11:15:42;95894.03;;;1.80;74.32
67397;BME280;57728;50.448;18.824;2023-03-11T11:17:52;95881.88;;;1.78;74.93
67397;BME280;57728;50.448;18.824;2023-03-11T11:20:02;95795.13;;;1.11;74.58
67397;BME280;57728;50.448;18.824;2023-03-11T11:22:18;95956.66;;;2.04;74.54
67397;BME280;57728;50.448;18.824;2023-03-11T11:24:29;95900.56;;;1.73;74.34
67397;BME280;57728;50.448;18.824;2023-03-11T11:26:32;95833.88;;;1.27;74.29
67397;BME280;57728;50.448;18.824;2023-03-11T11:28:34;95948.81;;;1.91;74.49